Time;durP1;ratioP1;P1;durP2;ratioP2;P2;SDS_P1;SDS_P2;PMS_P1;PMS_P2;Temp;Humidity;BMP_temperature;BMP_pressure;BME280_temperature;BME280_humidity;BME280_pressure;Samples;Min_cycle;Max_cycle;Signal;HPM_P1;HPM_P2
2021/01/17 00:00:32;;;;;;;66.83;20.87;;;;;;;-12.26;53.00;100276.54;1662044;85;21764;-67
2021/01/17 00:03:00;;;;;;;71.60;22.23;;;;;;;-12.28;52.99;100279.70;1640750;87;21313;-67
2021/01/17 00:05:29;;;;;;;69.43;21.20;;;;;;;-12.37;52.99;100277.36;1662058;86;21496;-66
2021/01/17 00:07:58;;;;;;;74.10;23.60;;;;;;;-12.41;53.14;100269.16;1651903;86;21074;-67
2021/01/17 00:10:27;;;;;;;69.80;21.10;;;;;;;-12.40;53.14;100265.61;1661923;85;21286;-68
2021/01/17 00:12:56;;;;;;;67.00;19.17;;;;;;;-12.42;53.01;100269.62;1651917;86;21811;-66
2021/01/17 00:15:23;;;;;;;74.58;21.93;;;;;;;-12.52;52.72;100269.10;1659350;85;21092;-67
2021/01/17 00:17:50;;;;;;;72.87;20.45;;;;;;;-12.71;52.90;100265.88;1657834;85;21076;-66
2021/01/17 00:20:20;;;;;;;66.83;21.57;;;;;;;-12.87;52.90;100273.02;1657965;86;21048;-67
2021/01/17 00:22:48;;;;;;;68.83;20.47;;;;;;;-12.92;53.27;100268.81;1658091;85;21640;-66
2021/01/17 00:25:17;;;;;;;63.37;19.60;;;;;;;-12.92;53.22;100272.77;1657928;85;21215;-67
2021/01/17 00:27:45;;;;;;;72.03;20.80;;;;;;;-12.97;53.34;100274.25;1658033;86;21317;-68
2021/01/17 00:30:14;;;;;;;67.83;21.27;;;;;;;-12.95;53.43;100274.20;1657939;85;21056;-66
2021/01/17 00:32:42;;;;;;;72.87;19.30;;;;;;;-12.91;53.30;100275.81;1658085;85;21259;-69
2021/01/17 00:35:10;;;;;;;60.47;19.33;;;;;;;-13.04;53.08;100277.12;1657995;85;21808;-67
2021/01/17 00:37:37;;;;;;;63.40;20.47;;;;;;;-13.24;53.34;100275.20;1658022;85;21311;-68
2021/01/17 00:40:06;;;;;;;70.23;19.93;;;;;;;-13.26;53.74;100283.61;1657957;86;21211;-67
2021/01/17 00:42:33;;;;;;;74.07;20.57;;;;;;;-13.20;53.95;100277.68;1658065;85;21275;-66
2021/01/17 00:45:03;;;;;;;63.33;19.77;;;;;;;-13.14;53.93;100276.58;1641209;86;21124;-67
2021/01/17 00:47:31;;;;;;;73.80;21.80;;;;;;;-13.07;53.98;100282.50;1641256;86;21107;-67
2021/01/17 00:49:59;;;;;;;71.27;21.13;;;;;;;-13.00;53.90;100286.22;1641232;86;21278;-68
2021/01/17 00:52:26;;;;;;;88.55;22.20;;;;;;;-12.90;53.89;100283.67;1641133;87;21861;-68
2021/01/17 00:54:54;;;;;;;77.93;22.13;;;;;;;-12.88;53.65;100275.70;1641142;86;21305;-67
2021/01/17 00:57:22;;;;;;;77.83;22.37;;;;;;;-12.94;53.39;100289.10;1620280;87;21679;-67
2021/01/17 00:59:49;;;;;;;80.73;22.43;;;;;;;-13.02;53.46;100285.38;1641150;87;21060;-67
2021/01/17 01:02:16;;;;;;;72.13;22.33;;;;;;;-13.01;53.62;100280.51;1641093;87;21352;-68
2021/01/17 01:04:44;;;;;;;81.17;23.30;;;;;;;-12.99;53.63;100283.12;1641050;86;21193;-68
2021/01/17 01:07:12;;;;;;;79.30;23.13;;;;;;;-12.98;53.62;100289.66;1641057;87;21120;-67
2021/01/17 01:09:39;;;;;;;79.00;22.77;;;;;;;-12.97;53.67;100294.48;1640975;86;21198;-66
2021/01/17 01:12:07;;;;;;;76.13;21.20;;;;;;;-12.95;53.69;100290.88;1641120;87;21231;-68
2021/01/17 01:14:34;;;;;;;85.63;24.70;;;;;;;-12.89;53.73;100293.76;1642281;86;21828;-67
2021/01/17 01:17:02;;;;;;;80.00;23.33;;;;;;;-12.84;53.74;100294.00;1669831;84;21344;-67
2021/01/17 01:19:30;;;;;;;76.33;22.87;;;;;;;-12.73;53.61;100296.27;1659909;86;21254;-66
2021/01/17 01:21:57;;;;;;;77.97;22.67;;;;;;;-12.68;53.53;100302.23;1669794;86;21233;-66
2021/01/17 01:24:24;;;;;;;71.03;22.33;;;;;;;-12.61;53.50;100291.86;1589755;86;21382;-67
2021/01/17 01:26:52;;;;;;;83.13;22.63;;;;;;;-12.55;53.34;100287.68;1669763;84;21813;-67
2021/01/17 01:29:19;;;;;;;73.17;22.97;;;;;;;-12.54;53.16;100285.45;1659878;86;21438;-65
2021/01/17 01:31:47;;;;;;;71.70;22.70;;;;;;;-12.54;53.08;100290.73;1669899;84;21063;-67
2021/01/17 01:34:15;;;;;;;75.17;23.23;;;;;;;-12.53;53.05;100287.63;1660064;86;21281;-66
2021/01/17 01:36:43;;;;;;;82.92;24.20;;;;;;;-12.51;53.06;100289.30;1669790;84;21309;-67
2021/01/17 01:39:10;;;;;;;91.73;27.60;;;;;;;-12.46;53.00;100286.95;1655677;86;21067;-67
2021/01/17 01:41:41;;;;;;;77.23;23.23;;;;;;;-12.44;52.83;100291.70;1669831;84;21055;-66
2021/01/17 01:44:10;;;;;;;75.37;21.45;;;;;;;-12.49;52.70;100280.00;1660046;86;21058;-67
2021/01/17 01:46:39;;;;;;;73.87;22.47;;;;;;;-12.49;52.79;100280.00;1669760;84;21236;-67
2021/01/17 01:49:09;;;;;;;83.97;23.40;;;;;;;-12.46;52.73;100279.89;1660003;86;21659;-66
2021/01/17 01:51:40;;;;;;;75.20;22.20;;;;;;;-12.41;52.58;100285.86;1669840;85;21299;-67
2021/01/17 01:54:09;;;;;;;72.00;22.07;;;;;;;-12.39;52.49;100293.27;1659951;86;21444;-67
2021/01/17 01:56:36;;;;;;;83.93;22.80;;;;;;;-12.39;52.41;100276.10;1669828;84;21148;-66
2021/01/17 01:59:04;;;;;;;75.83;22.20;;;;;;;-12.38;52.29;100282.24;1659976;86;21360;-66
2021/01/17 02:01:32;;;;;;;91.40;25.10;;;;;;;-12.43;52.19;100278.91;1669944;85;21330;-68
2021/01/17 02:04:00;;;;;;;75.23;22.50;;;;;;;-12.49;52.20;100285.28;1660032;86;21164;-67
2021/01/17 02:06:27;;;;;;;80.53;24.47;;;;;;;-12.49;52.31;100277.36;1669972;84;21811;-67
2021/01/17 02:09:26;;;;;;;75.20;23.27;;;;;;;-12.50;52.22;100270.36;1659984;86;21067;-67
2021/01/17 02:12:21;;;;;;;78.57;23.03;;;;;;;-12.52;52.14;100274.37;1669895;84;21189;-68
2021/01/17 02:15:24;;;;;;;73.93;21.77;;;;;;;-12.58;51.93;100274.60;1654140;85;21059;-66
2021/01/17 02:17:52;;;;;;;68.47;21.30;;;;;;;-12.75;52.13;100280.08;1703978;84;21346;-67
2021/01/17 02:20:23;;;;;;;76.53;22.77;;;;;;;-12.76;52.36;100280.55;1704028;82;21063;-66
2021/01/17 02:23:04;;;;;;;73.37;22.77;;;;;;;-12.77;52.29;100284.09;1669882;84;21214;-65
2021/01/17 02:25:38;;;;;;;71.87;22.10;;;;;;;-12.77;52.29;100280.14;1660009;86;21106;-66
2021/01/17 02:28:12;;;;;;;66.37;19.93;;;;;;;-12.80;52.28;100278.93;1669823;84;21745;-66
2021/01/17 02:30:45;;;;;;;70.03;21.50;;;;;;;-12.84;52.41;100279.95;1648258;86;21286;-67
2021/01/17 02:33:26;;;;;;;63.87;22.03;;;;;;;-12.85;52.41;100288.33;1606893;86;21122;-67
2021/01/17 02:36:14;;;;;;;62.23;19.07;;;;;;;-12.87;52.56;100295.89;1646567;86;21062;-68
2021/01/17 02:38:51;;;;;;;67.60;20.07;;;;;;;-12.86;52.44;100288.37;1648683;86;21705;-66
2021/01/17 02:41:25;;;;;;;65.73;19.70;;;;;;;-12.92;52.55;100287.27;1669847;84;21953;-68
2021/01/17 02:43:53;;;;;;;61.67;18.93;;;;;;;-12.91;52.49;100285.90;1660071;85;21396;-67
2021/01/17 02:46:20;;;;;;;64.33;18.23;;;;;;;-12.92;52.37;100284.18;1669801;84;21343;-67
2021/01/17 02:48:48;;;;;;;59.77;19.30;;;;;;;-12.93;52.56;100286.88;1659887;86;21293;-67
2021/01/17 02:51:15;;;;;;;55.53;19.10;;;;;;;-12.87;52.58;100282.70;1669795;84;21856;-67
2021/01/17 02:53:57;;;;;;;60.40;19.40;;;;;;;-12.85;52.42;100285.69;1660024;86;21481;-66
2021/01/17 02:56:24;;;;;;;66.37;20.23;;;;;;;-12.89;52.37;100273.98;1669815;84;21344;-68
2021/01/17 02:58:52;;;;;;;64.13;19.13;;;;;;;-12.91;52.39;100275.35;1659904;86;21204;-68
2021/01/17 03:01:23;;;;;;;71.97;20.83;;;;;;;-12.92;52.35;100276.27;1650469;85;21381;-68
2021/01/17 03:03:51;;;;;;;66.17;20.33;;;;;;;-12.94;52.34;100262.73;1631642;86;21310;-67
2021/01/17 03:06:18;;;;;;;68.73;21.63;;;;;;;-12.94;52.42;100265.38;1650447;86;21344;-69
2021/01/17 03:08:46;;;;;;;72.70;21.77;;;;;;;-12.96;52.39;100267.20;1660025;86;21062;-65
2021/01/17 03:11:13;;;;;;;78.07;21.43;;;;;;;-12.98;52.38;100270.34;1669896;84;21373;-66
2021/01/17 03:13:41;;;;;;;89.83;26.00;;;;;;;-13.04;52.37;100263.48;1631686;86;21261;-67
2021/01/17 03:16:10;;;;;;;89.28;25.45;;;;;;;-13.08;52.43;100268.91;1663924;84;21194;-67
2021/01/17 03:18:37;;;;;;;84.60;24.67;;;;;;;-13.10;52.41;100268.97;1641241;87;21079;-66
2021/01/17 03:21:05;;;;;;;80.03;23.30;;;;;;;-13.12;52.46;100266.38;1657902;85;21063;-66
2021/01/17 03:23:32;;;;;;;78.70;23.38;;;;;;;-13.17;52.42;100268.35;1640937;87;21093;-67
2021/01/17 03:25:59;;;;;;;80.97;24.93;;;;;;;-13.21;52.49;100264.09;1657481;85;21084;-66
2021/01/17 03:28:27;;;;;;;98.00;25.87;;;;;;;-13.21;52.57;100268.05;1640495;87;21814;-65
2021/01/17 03:30:55;;;;;;;95.93;28.20;;;;;;;-13.18;52.61;100269.27;1657062;85;21103;-67
2021/01/17 03:33:22;;;;;;;107.63;29.27;;;;;;;-13.17;52.64;100267.03;1640283;87;21316;-66
2021/01/17 03:35:50;;;;;;;93.43;27.23;;;;;;;-13.19;52.58;100264.91;1657056;85;21079;-67
2021/01/17 03:38:18;;;;;;;104.07;29.87;;;;;;;-13.19;52.72;100264.91;1640801;87;21083;-66
2021/01/17 03:40:45;;;;;;;98.17;27.47;;;;;;;-13.16;52.73;100267.41;1657931;85;21725;-66
2021/01/17 03:43:13;;;;;;;83.77;24.87;;;;;;;-13.10;52.70;100260.20;1641215;87;21091;-67
2021/01/17 03:45:41;;;;;;;80.93;22.87;;;;;;;-13.10;52.68;100254.47;1658007;86;21337;-66
2021/01/17 03:48:09;;;;;;;81.67;24.87;;;;;;;-13.09;52.56;100248.73;1641412;87;21332;-66
2021/01/17 03:50:37;;;;;;;91.57;25.07;;;;;;;-13.17;52.52;100248.58;1658069;85;21375;-68
2021/01/17 03:53:04;;;;;;;99.67;28.77;;;;;;;-13.20;52.74;100253.09;1641054;87;21779;-66
2021/01/17 03:55:32;;;;;;;90.37;26.17;;;;;;;-13.24;52.78;100243.12;1658125;85;21314;-67
2021/01/17 03:57:59;;;;;;;90.87;27.23;;;;;;;-13.24;52.94;100241.80;1641319;87;21024;-67
2021/01/17 04:00:26;;;;;;;97.37;28.33;;;;;;;-13.16;52.99;100241.50;1658046;85;21340;-67
2021/01/17 04:02:55;;;;;;;99.03;27.30;;;;;;;-13.13;52.88;100245.34;1641276;87;21110;-68
2021/01/17 04:05:23;;;;;;;86.20;25.93;;;;;;;-13.11;52.84;100240.88;1641359;87;21337;-67
2021/01/17 04:07:50;;;;;;;88.47;26.30;;;;;;;-13.16;52.87;100243.68;1658160;85;21227;-68
2021/01/17 04:10:18;;;;;;;80.17;25.20;;;;;;;-13.17;52.82;100245.95;1641344;87;21390;-67
2021/01/17 04:12:45;;;;;;;90.37;25.57;;;;;;;-13.17;52.82;100247.27;1658072;85;21340;-67
2021/01/17 04:15:14;;;;;;;94.47;26.00;;;;;;;-13.21;52.79;100239.06;1641266;87;21751;-67
2021/01/17 04:17:41;;;;;;;92.03;26.90;;;;;;;-13.21;52.87;100248.28;1662509;85;21291;-66
2021/01/17 04:20:10;;;;;;;84.13;24.93;;;;;;;-13.21;52.83;100244.33;1652363;86;21059;-66
2021/01/17 04:22:37;;;;;;;88.60;26.17;;;;;;;-13.21;52.73;100244.78;1662444;85;21733;-66
2021/01/17 04:25:06;;;;;;;100.07;27.80;;;;;;;-13.30;52.95;100249.91;1652310;86;21449;-65
2021/01/17 04:27:33;;;;;;;86.13;25.70;;;;;;;-13.34;53.00;100253.56;1662288;85;21178;-67
2021/01/17 04:30:01;;;;;;;81.03;25.27;;;;;;;-13.40;53.08;100252.45;1652080;86;21727;-67
2021/01/17 04:32:28;;;;;;;86.57;26.37;;;;;;;-13.38;53.14;100251.09;1662341;85;21875;-66
2021/01/17 04:34:56;;;;;;;76.80;24.67;;;;;;;-13.35;53.26;100255.80;1652307;86;21779;-66
2021/01/17 04:37:24;;;;;;;83.73;26.27;;;;;;;-13.29;53.33;100259.55;1662376;85;21029;-68
2021/01/17 04:39:51;;;;;;;82.70;26.23;;;;;;;-13.20;53.32;100259.69;1652364;85;21094;-67
2021/01/17 04:42:20;;;;;;;82.10;24.73;;;;;;;-13.19;53.22;100262.27;1662340;85;21423;-67
2021/01/17 04:44:53;;;;;;;88.50;26.47;;;;;;;-13.18;53.16;100257.41;1652387;86;21710;-67
2021/01/17 04:47:22;;;;;;;84.67;25.17;;;;;;;-13.14;53.11;100256.34;1662345;85;21834;-67
2021/01/17 04:49:52;;;;;;;77.13;24.90;;;;;;;-13.10;53.05;100257.56;1652319;86;21237;-66
2021/01/17 04:52:21;;;;;;;80.20;24.40;;;;;;;-13.12;52.97;100251.89;1662428;85;21084;-67
2021/01/17 04:54:48;;;;;;;87.27;26.57;;;;;;;-13.09;52.89;100253.55;1652196;86;21656;-66
2021/01/17 04:57:39;;;;;;;84.13;26.10;;;;;;;-13.08;52.78;100258.37;1662423;85;21235;-65
2021/01/17 05:00:09;;;;;;;75.53;22.77;;;;;;;-13.14;52.77;100256.80;1652414;86;21246;-68
2021/01/17 05:02:47;;;;;;;80.93;25.90;;;;;;;-13.17;52.78;100253.85;1662520;85;21295;-67
2021/01/17 05:05:23;;;;;;;82.67;23.80;;;;;;;-13.19;52.80;100257.45;1652365;86;21047;-66
2021/01/17 05:08:10;;;;;;;87.77;26.03;;;;;;;-13.20;52.79;100259.23;1663334;84;21071;-66
2021/01/17 05:10:39;;;;;;;84.40;25.20;;;;;;;-13.22;52.71;100249.66;1673808;84;21322;-66
2021/01/17 05:13:09;;;;;;;81.53;24.57;;;;;;;-13.31;52.70;100257.87;1673661;84;21099;-66
2021/01/17 05:15:39;;;;;;;81.00;24.97;;;;;;;-13.35;52.88;100258.44;1673824;84;21096;-67
2021/01/17 05:18:07;;;;;;;81.60;25.23;;;;;;;-13.39;53.01;100254.18;1671505;84;21063;-66
2021/01/17 05:20:34;;;;;;;78.87;23.87;;;;;;;-13.38;53.15;100248.00;1671538;84;21245;-66
2021/01/17 05:23:08;;;;;;;68.57;22.87;;;;;;;-13.37;53.22;100243.13;1666062;86;21329;-66
2021/01/17 05:25:35;;;;;;;82.50;24.20;;;;;;;-13.37;53.07;100248.40;1643809;86;21134;-66
2021/01/17 05:28:03;;;;;;;76.33;22.87;;;;;;;-13.43;53.17;100254.33;1662258;86;21365;-66
2021/01/17 05:30:30;;;;;;;74.83;23.57;;;;;;;-13.46;53.22;100252.66;1690282;84;21854;-66
2021/01/17 05:32:57;;;;;;;83.30;23.77;;;;;;;-13.46;53.14;100253.98;1704426;83;21396;-66
2021/01/17 05:35:25;;;;;;;70.07;23.20;;;;;;;-13.48;53.20;100255.80;1669755;85;21319;-66
2021/01/17 05:37:54;;;;;;;69.33;23.77;;;;;;;-13.50;53.23;100258.48;1659828;86;21838;-67
2021/01/17 05:40:23;;;;;;;82.00;25.03;;;;;;;-13.46;53.32;100258.80;1669871;84;21298;-68
2021/01/17 05:42:50;;;;;;;71.53;23.73;;;;;;;-13.40;53.30;100260.36;1659835;86;21091;-65
2021/01/17 05:45:23;;;;;;;77.37;25.40;;;;;;;-13.35;53.21;100262.84;1669781;84;21763;-66
2021/01/17 05:47:55;;;;;;;82.13;24.70;;;;;;;-13.31;53.03;100257.42;1659885;86;21062;-66
2021/01/17 05:50:23;;;;;;;93.30;27.93;;;;;;;-13.35;52.79;100262.38;1669795;84;21410;-66
2021/01/17 05:53:04;;;;;;;87.07;26.17;;;;;;;-13.38;52.90;100269.08;1659932;86;21098;-66
2021/01/17 05:55:39;;;;;;;92.07;26.27;;;;;;;-13.39;52.88;100264.72;1669921;86;21362;-66
2021/01/17 05:58:32;;;;;;;98.37;27.17;;;;;;;-13.38;52.92;100274.34;1660145;86;21091;-67
2021/01/17 06:01:03;;;;;;;108.30;29.50;;;;;;;-13.36;52.88;100269.89;1669727;84;21347;-65
2021/01/17 06:03:32;;;;;;;111.90;29.90;;;;;;;-13.29;52.80;100269.22;1631639;86;21330;-67
2021/01/17 06:06:06;;;;;;;123.60;31.47;;;;;;;-13.33;52.69;100275.05;1669920;86;21396;-67
2021/01/17 06:08:34;;;;;;;94.63;28.27;;;;;;;-13.33;52.69;100275.52;1655552;86;21080;-66
2021/01/17 06:11:11;;;;;;;96.93;27.70;;;;;;;-13.34;52.74;100274.65;1669983;84;21373;-67
2021/01/17 06:13:41;;;;;;;89.28;26.65;;;;;;;-13.30;52.64;100280.68;1660000;86;21211;-68
2021/01/17 06:16:32;;;;;;;96.40;26.93;;;;;;;-13.34;52.65;100281.23;1670467;85;21346;-66
2021/01/17 06:19:02;;;;;;;93.77;26.87;;;;;;;-13.35;52.52;100280.83;1713741;82;21073;-67
2021/01/17 06:24:10;;;;;;;101.13;28.27;;;;;;;-13.48;52.64;100284.78;1705202;83;21184;-68
2021/01/17 06:26:39;;;;;;;83.57;26.17;;;;;;;-13.42;52.69;100292.94;1704792;84;21859;-66
2021/01/17 06:29:09;;;;;;;86.20;26.77;;;;;;;-13.37;52.77;100289.24;1704967;83;21267;-66
2021/01/17 06:31:37;;;;;;;88.20;26.20;;;;;;;-13.31;52.80;100302.22;1704909;83;21311;-67
2021/01/17 06:34:14;;;;;;;92.07;27.67;;;;;;;-13.32;52.75;100296.99;1705251;83;21133;-66
2021/01/17 06:36:48;;;;;;;89.10;28.10;;;;;;;-13.37;52.92;100302.42;1705049;84;21167;-68
2021/01/17 06:39:26;;;;;;;97.00;28.23;;;;;;;-13.37;52.91;100297.15;1704987;83;21302;-65
2021/01/17 06:41:57;;;;;;;107.07;29.73;;;;;;;-13.40;52.94;100299.88;1704979;83;21069;-66
2021/01/17 06:44:31;;;;;;;102.87;29.80;;;;;;;-13.36;53.08;100297.55;1704870;84;21327;-67
2021/01/17 06:47:00;;;;;;;115.53;30.50;;;;;;;-13.25;53.04;100303.33;1704925;83;21136;-67
2021/01/17 06:49:33;;;;;;;109.07;32.10;;;;;;;-13.20;53.00;100302.72;1704965;83;21092;-66
2021/01/17 06:52:05;;;;;;;103.83;31.30;;;;;;;-13.13;52.91;100302.02;1682947;83;21426;-66
2021/01/17 06:54:35;;;;;;;106.23;33.43;;;;;;;-13.06;52.83;100301.36;1704856;84;21119;-67
2021/01/17 06:57:04;;;;;;;121.47;34.40;;;;;;;-12.99;52.77;100301.13;1704939;83;21068;-68
2021/01/17 06:59:48;;;;;;;116.30;33.33;;;;;;;-13.01;52.66;100300.74;1704988;83;21267;-67
2021/01/17 07:02:32;;;;;;;117.73;33.97;;;;;;;-13.02;52.64;100305.61;1704878;83;21848;-66
2021/01/17 07:05:11;;;;;;;125.93;34.37;;;;;;;-12.99;52.83;100299.81;1645480;86;21261;-67
2021/01/17 07:08:17;;;;;;;112.13;33.63;;;;;;;-12.94;52.87;100304.47;1627101;87;21112;-67
2021/01/17 07:10:45;;;;;;;125.00;34.43;;;;;;;-12.92;52.93;100300.00;1661384;86;21857;-66
2021/01/17 07:13:17;;;;;;;117.87;34.83;;;;;;;-12.82;53.01;100305.36;1665389;85;21071;-66
2021/01/17 07:15:46;;;;;;;107.13;34.10;;;;;;;-12.70;53.02;100302.74;1644985;86;21788;-67
2021/01/17 07:18:15;;;;;;;124.57;34.20;;;;;;;-12.59;53.00;100299.27;1623106;86;21116;-67
2021/01/17 07:20:46;;;;;;;118.77;35.63;;;;;;;-12.50;53.00;100288.37;1665337;84;21766;-67
2021/01/17 07:23:18;;;;;;;117.67;35.13;;;;;;;-12.41;52.90;100294.23;1682006;84;21362;-67
2021/01/17 07:25:47;;;;;;;111.50;33.30;;;;;;;-12.33;52.88;100292.20;1700224;84;21286;-66
2021/01/17 07:28:21;;;;;;;113.03;33.88;;;;;;;-12.24;52.84;100294.50;1700077;84;21294;-67
2021/01/17 07:31:03;;;;;;;109.07;33.60;;;;;;;-12.17;52.82;100287.61;1699971;84;21186;-66
2021/01/17 07:33:36;;;;;;;114.23;34.50;;;;;;;-12.08;52.77;100286.86;1700095;84;21081;-67
2021/01/17 07:36:08;;;;;;;105.03;34.17;;;;;;;-12.03;52.78;100276.98;1700121;84;21298;-66
2021/01/17 07:38:37;;;;;;;113.42;36.80;;;;;;;-11.95;52.88;100281.50;1700101;84;21047;-66
2021/01/17 07:41:08;;;;;;;107.63;35.28;;;;;;;-11.85;52.86;100285.05;1700145;83;21295;-66
2021/01/17 07:43:42;;;;;;;113.52;36.68;;;;;;;-11.76;52.81;100285.58;1700130;84;21377;-66
2021/01/17 07:46:13;;;;;;;109.03;34.92;;;;;;;-11.67;52.86;100283.92;1700243;84;21095;-66
2021/01/17 07:48:43;;;;;;;116.45;36.88;;;;;;;-11.56;52.73;100281.25;1700264;84;21099;-68
2021/01/17 07:51:13;;;;;;;102.05;33.78;;;;;;;-11.46;52.64;100280.87;1686923;84;21084;-66
2021/01/17 07:54:10;;;;;;;97.02;33.58;;;;;;;-11.39;52.54;100280.56;1671910;85;21888;-67
2021/01/17 07:56:38;;;;;;;107.47;32.38;;;;;;;-11.31;52.44;100285.07;1672107;85;21315;-66
2021/01/17 07:59:07;;;;;;;102.65;31.93;;;;;;;-11.24;52.33;100285.22;1672116;85;21260;-67
2021/01/17 08:01:40;;;;;;;91.78;30.27;;;;;;;-11.24;52.30;100282.57;1672021;85;21366;-68
2021/01/17 08:04:16;;;;;;;97.05;31.77;;;;;;;-11.20;52.38;100285.95;1672040;85;21117;-66
2021/01/17 08:06:48;;;;;;;100.22;31.07;;;;;;;-11.16;52.29;100293.29;1671932;85;21341;-67
2021/01/17 08:09:17;;;;;;;102.45;31.82;;;;;;;-11.15;52.47;100290.58;1671941;85;21092;-68
2021/01/17 08:11:56;;;;;;;86.60;27.95;;;;;;;-11.00;52.46;100277.20;1671923;85;21410;-68
2021/01/17 08:14:41;;;;;;;100.53;33.10;;;;;;;-10.92;52.33;100284.35;1671857;85;21089;-66
2021/01/17 08:17:20;;;;;;;99.65;31.70;;;;;;;-10.94;52.20;100283.09;1671985;85;21053;-66
2021/01/17 08:19:56;;;;;;;109.27;33.28;;;;;;;-10.89;52.36;100293.02;1671940;85;21211;-67
2021/01/17 08:22:29;;;;;;;99.75;31.07;;;;;;;-10.86;52.43;100292.02;1671861;85;21073;-67
2021/01/17 08:25:03;;;;;;;95.95;30.02;;;;;;;-10.74;52.46;100293.28;1671879;85;21049;-67
2021/01/17 08:27:34;;;;;;;95.07;29.82;;;;;;;-10.66;52.24;100286.73;1672003;85;21073;-66
2021/01/17 08:30:17;;;;;;;89.75;27.93;;;;;;;-10.62;52.20;100283.02;1671666;85;21829;-67
2021/01/17 08:32:50;;;;;;;87.30;28.90;;;;;;;-10.58;52.14;100271.37;1671984;85;21113;-68
2021/01/17 08:35:26;;;;;;;95.03;27.75;;;;;;;-10.56;52.25;100269.97;1671901;85;21320;-68
2021/01/17 08:38:10;;;;;;;98.15;29.95;;;;;;;-10.50;52.21;100266.20;1672044;85;21065;-67
2021/01/17 08:40:45;;;;;;;82.70;27.10;;;;;;;-10.47;52.17;100270.03;1672070;85;21339;-68
2021/01/17 08:43:15;;;;;;;67.50;24.52;;;;;;;-10.43;52.32;100268.50;1671996;85;21783;-67
2021/01/17 08:45:46;;;;;;;72.15;26.73;;;;;;;-10.35;52.41;100267.72;1671889;85;21199;-66
2021/01/17 08:48:26;;;;;;;75.57;25.15;;;;;;;-10.30;52.36;100269.69;1671675;85;21101;-66
2021/01/17 08:50:57;;;;;;;66.45;23.47;;;;;;;-10.27;52.36;100272.20;1672000;85;21791;-66
2021/01/17 08:53:31;;;;;;;67.50;21.27;;;;;;;-10.18;52.34;100269.56;1671853;85;21354;-67
2021/01/17 08:56:04;;;;;;;66.57;21.48;;;;;;;-10.08;52.18;100273.50;1672062;85;21840;-66
2021/01/17 08:58:38;;;;;;;35.20;11.88;;;;;;;-9.98;52.10;100272.14;1668357;85;21929;-66
2021/01/17 09:01:08;;;;;;;37.45;12.82;;;;;;;-9.90;51.70;100267.81;1672005;85;21314;-68
2021/01/17 09:03:44;;;;;;;32.38;10.90;;;;;;;-9.95;51.55;100265.38;1671976;85;21204;-67
2021/01/17 09:06:21;;;;;;;31.62;10.43;;;;;;;-10.02;51.40;100263.95;1672098;85;21352;-66
2021/01/17 09:08:57;;;;;;;30.20;8.93;;;;;;;-10.10;51.62;100257.28;1672221;85;21114;-66
2021/01/17 09:11:36;;;;;;;27.87;8.88;;;;;;;-10.24;51.58;100260.61;1672146;85;21373;-66
2021/01/17 09:14:15;;;;;;;24.35;8.73;;;;;;;-10.36;51.79;100256.73;1671816;85;21085;-69
2021/01/17 09:16:52;;;;;;;33.30;8.53;;;;;;;-10.57;52.23;100253.23;1671881;85;21848;-66
2021/01/17 09:19:23;;;;;;;26.68;9.18;;;;;;;-10.59;52.61;100263.03;1672129;85;21085;-69
2021/01/17 09:21:52;;;;;;;21.48;6.55;;;;;;;-10.46;52.92;100260.69;1671815;85;21057;-67
2021/01/17 09:24:28;;;;;;;25.32;8.85;;;;;;;-10.38;52.36;100266.53;1668021;85;21117;-67
2021/01/17 09:27:00;;;;;;;25.70;8.50;;;;;;;-10.50;52.50;100267.52;1665409;84;21050;-67
2021/01/17 09:29:33;;;;;;;26.82;9.50;;;;;;;-10.51;52.64;100270.63;1665618;85;21326;-66
2021/01/17 09:32:15;;;;;;;30.68;9.78;;;;;;;-10.60;52.53;100263.09;1665307;86;21849;-67
2021/01/17 09:34:45;;;;;;;35.80;10.13;;;;;;;-10.56;52.74;100262.89;1665388;86;21053;-66
2021/01/17 09:37:14;;;;;;;31.17;8.63;;;;;;;-10.45;52.76;100253.61;1665398;84;21709;-67
2021/01/17 09:39:46;;;;;;;32.95;9.00;;;;;;;-10.26;52.69;100251.88;1665405;86;21716;-68
2021/01/17 09:42:16;;;;;;;36.00;10.38;;;;;;;-10.25;52.62;100256.23;1665545;85;21658;-69
2021/01/17 09:44:52;;;;;;;38.28;10.60;;;;;;;-10.21;52.17;100250.34;1665360;86;21691;-67
2021/01/17 09:47:22;;;;;;;30.48;9.05;;;;;;;-10.25;52.11;100244.32;1665580;86;21308;-68
2021/01/17 09:49:50;;;;;;;30.70;9.03;;;;;;;-10.13;52.11;100246.37;1665332;85;21858;-68
2021/01/17 09:52:21;;;;;;;19.92;6.83;;;;;;;-9.94;52.12;100240.59;1665385;85;21184;-69
2021/01/17 09:54:50;;;;;;;24.80;8.18;;;;;;;-9.80;51.31;100239.08;1665180;86;21463;-68
2021/01/17 09:57:24;;;;;;;21.45;7.28;;;;;;;-10.16;50.58;100239.03;1665105;85;21109;-67
2021/01/17 09:59:53;;;;;;;22.60;7.30;;;;;;;-10.52;51.27;100237.61;1665369;85;21699;-68
2021/01/17 10:02:23;;;;;;;20.25;6.70;;;;;;;-10.53;51.98;100231.91;1665424;86;21771;-70
2021/01/17 10:04:51;;;;;;;20.65;7.45;;;;;;;-10.43;51.97;100234.54;1664802;85;21276;-67
2021/01/17 10:07:21;;;;;;;24.95;8.38;;;;;;;-10.30;51.61;100234.41;1665432;84;21089;-66
2021/01/17 10:09:50;;;;;;;22.20;8.20;;;;;;;-10.23;51.68;100234.52;1664968;85;21132;-67
2021/01/17 10:12:21;;;;;;;24.87;7.60;;;;;;;-10.10;51.63;100238.28;1665330;85;21128;-68
2021/01/17 10:14:49;;;;;;;18.52;7.05;;;;;;;-10.03;51.48;100230.90;1665421;86;21081;-69
2021/01/17 10:17:18;;;;;;;25.50;7.47;;;;;;;-9.89;51.25;100228.92;1665427;85;21101;-70
2021/01/17 10:19:47;;;;;;;24.55;7.90;;;;;;;-9.78;51.35;100236.75;1665429;84;21341;-69
2021/01/17 10:22:16;;;;;;;23.67;7.90;;;;;;;-9.63;50.82;100229.41;1665850;84;21328;-68
2021/01/17 10:24:44;;;;;;;19.65;6.28;;;;;;;-9.53;50.39;100228.95;1666946;85;21371;-69
2021/01/17 10:27:12;;;;;;;16.75;6.00;;;;;;;-9.48;50.12;100220.31;1667371;85;21080;-68
2021/01/17 10:29:41;;;;;;;20.12;6.87;;;;;;;-9.45;49.97;100217.50;1667389;85;21320;-68
2021/01/17 10:32:11;;;;;;;22.50;7.95;;;;;;;-9.44;49.94;100216.56;1669435;86;21074;-68
2021/01/17 10:34:45;;;;;;;25.25;8.90;;;;;;;-9.34;50.31;100220.01;1669361;85;21334;-67
2021/01/17 10:37:16;;;;;;;18.00;6.58;;;;;;;-9.12;50.42;100218.92;1667404;84;21312;-70
2021/01/17 10:39:45;;;;;;;23.32;8.38;;;;;;;-8.97;49.71;100211.53;1665511;86;21089;-69
2021/01/17 10:42:29;;;;;;;25.57;7.97;;;;;;;-8.90;49.86;100215.58;1667378;86;21097;-69
2021/01/17 10:45:13;;;;;;;23.60;8.10;;;;;;;-8.81;49.49;100208.47;1667327;85;21750;-69
2021/01/17 10:48:04;;;;;;;20.88;7.00;;;;;;;-8.76;49.21;100209.09;1667296;84;21093;-68
2021/01/17 10:50:40;;;;;;;25.20;8.40;;;;;;;-8.55;49.19;100214.20;1667377;85;21074;-69
2021/01/17 10:53:16;;;;;;;25.50;7.85;;;;;;;-8.55;48.93;100216.85;1660914;86;21458;-69
2021/01/17 10:55:55;;;;;;;19.87;7.65;;;;;;;-8.47;48.91;100214.64;1660107;86;21415;-70
2021/01/17 10:58:35;;;;;;;21.52;8.20;;;;;;;-8.32;49.43;100215.14;1669274;84;21114;-70
2021/01/17 11:01:02;;;;;;;25.20;7.95;;;;;;;-8.04;49.86;100208.70;1667180;85;21077;-67
2021/01/17 11:03:35;;;;;;;28.02;8.10;;;;;;;-7.83;49.45;100211.95;1667266;84;21069;-66
2021/01/17 11:06:09;;;;;;;36.90;10.50;;;;;;;-7.65;49.34;100209.23;1667244;85;21093;-67
2021/01/17 11:08:53;;;;;;;24.90;9.45;;;;;;;-7.46;48.54;100207.23;1667141;86;21260;-68
2021/01/17 11:11:30;;;;;;;28.52;9.58;;;;;;;-7.39;47.51;100205.45;1667164;84;21347;-69
2021/01/17 11:14:00;;;;;;;28.52;9.53;;;;;;;-7.39;46.69;100202.80;1667350;84;21731;-66
2021/01/17 11:16:44;;;;;;;27.42;9.88;;;;;;;-7.65;46.08;100204.77;1667473;84;21320;-69
2021/01/17 11:19:13;;;;;;;26.37;8.05;;;;;;;-7.86;46.18;100195.31;1648178;85;21097;-66
2021/01/17 11:21:43;;;;;;;27.32;9.45;;;;;;;-7.94;46.06;100202.39;1667282;85;21107;-69
2021/01/17 11:24:11;;;;;;;31.12;10.95;;;;;;;-8.27;45.95;100197.63;1666804;85;21863;-67